David Ellis — WDD5476 — position and weather

sailwx.info

Track history (hours):
 
Tides and Currents Weather Stations Pressure Air Temp Water Temp Dewpoint Dewpoint Depression Visibility Wind Speed Wind Dir Waves Ship Positions

David Ellis

Owner: Nagle, David m, Sebastopol, CA. More information available from US FCC via Universal Licensing System and Coast Guard Vessel Documentation Center.

Last reported at 2017-Oct-04 18:05 UTC. Time now 2017-Oct-18 02:31 UTC.
Position N 48°27' W 122°45'.
Warning: this ship's position is 13 days out of date.

Length 16 m.

Type: Pleasure craft. MMSI: 367158940.

Date/timePositionNaut miles runAvg speedWind from/ knotsBaromVisibWave heightAir tempDewpointWater temp
2017-Oct-04 18:05N 48°27' W 122°45'1 8.0
2017-Oct-04 17:58N 48°28' W 122°45'4 8.4
2017-Oct-04 17:28N 48°32' W 122°46'4 9.0
2017-Oct-04 16:59N 48°37' W 122°45'4 8.1
2017-Oct-04 16:30N 48°41' W 122°46'8 0.2
2017-Oct-02 23:25N 48°44' W 122°57'7 6.7
2017-Oct-02 22:25N 48°38' W 123°02'3 5.7
2017-Oct-02 21:54N 48°35' W 123°01'2 5.8
2017-Oct-02 21:30N 48°32' W 123°01'0 0.2
2017-Oct-02 20:44N 48°32' W 123°01'1 2.8
2017-Oct-02 20:30N 48°33' W 123°00'10 6.9
2017-Oct-02 19:04N 48°39' W 123°12'  
2017-Sep-29 00:13N 49°10' W 123°56'1 3.3
2017-Sep-29 00:00N 49°10' W 123°55'3 6.3
2017-Sep-28 23:30N 49°13' W 123°56'3 6.8
2017-Sep-28 23:00N 49°15' W 124°00'3 6.8
2017-Sep-28 22:31N 49°17' W 124°04'4 7.0
2017-Sep-28 22:00N 49°19' W 124°09'3 7.0
2017-Sep-28 21:30N 49°21' W 124°13'4 7.2
2017-Sep-28 20:59N 49°24' W 124°17'3 7.1
2017-Sep-28 20:30N 49°27' W 124°20'3 6.9
2017-Sep-28 20:01N 49°29' W 124°24'4 7.0
2017-Sep-28 19:30N 49°32' W 124°28'4 7.1
2017-Sep-28 19:00N 49°35' W 124°31'3 7.0
2017-Sep-28 18:30N 49°38' W 124°33'3 6.8
2017-Sep-28 17:59N 49°41' W 124°36'3 6.9
2017-Sep-28 17:30N 49°44' W 124°39'3 6.5
2017-Sep-28 16:59N 49°47' W 124°40'3 6.7
2017-Sep-28 16:30N 49°50' W 124°41'3 6.7
2017-Sep-28 16:00N 49°53' W 124°42'3 6.3
2017-Sep-28 15:30N 49°56' W 124°44'3 5.9
2017-Sep-28 15:00N 49°59' W 124°46'0 0.0
2017-Sep-27 22:33N 49°59' W 124°46'0 0.0
2017-Sep-27 22:30N 49°59' W 124°46'2 4.4
2017-Sep-27 22:00N 49°59' W 124°49'4 6.9
2017-Sep-27 21:30N 50°00' W 124°54'4 6.8
2017-Sep-27 20:56N 49°60' W 125°00'3 6.9
2017-Sep-27 20:30N 49°59' W 125°05'3 6.1
2017-Sep-27 19:59N 49°59' W 125°10'3 5.2
2017-Sep-27 19:30N 50°00' W 125°13'3 6.2
2017-Sep-27 19:00N 50°03' W 125°15'3 6.8
2017-Sep-27 18:30N 50°06' W 125°18'3 6.7
2017-Sep-27 18:00N 50°09' W 125°21'4 7.1
2017-Sep-27 17:26N 50°13' W 125°22'  
2017-Sep-24 18:47N 50°44' W 127°21'2 6.5
2017-Sep-24 18:26N 50°45' W 127°24'  
Track history (hours):
 
Tides and Currents Weather Stations Pressure Air Temp Water Temp Dewpoint Dewpoint Depression Visibility Wind Speed Wind Dir Waves Ship Positions

David Ellis

Owner: Nagle, David m, Sebastopol, CA. More information available from US FCC via Universal Licensing System and Coast Guard Vessel Documentation Center.

Last reported at 2017-Oct-04 18:05 UTC. Time now 2017-Oct-18 02:31 UTC.
Position N 48°27' W 122°45'.
Warning: this ship's position is 13 days out of date.

Length 16 m.

Type: Pleasure craft. MMSI: 367158940.

Date/timePositionNaut miles runAvg speedWind from/ knotsBaromVisibWave heightAir tempDewpointWater temp
2017-Oct-04 18:05N 48°27' W 122°45'1 8.0
2017-Oct-04 17:58N 48°28' W 122°45'4 8.4
2017-Oct-04 17:28N 48°32' W 122°46'4 9.0
2017-Oct-04 16:59N 48°37' W 122°45'4 8.1
2017-Oct-04 16:30N 48°41' W 122°46'8 0.2
2017-Oct-02 23:25N 48°44' W 122°57'7 6.7
2017-Oct-02 22:25N 48°38' W 123°02'3 5.7
2017-Oct-02 21:54N 48°35' W 123°01'2 5.8
2017-Oct-02 21:30N 48°32' W 123°01'0 0.2
2017-Oct-02 20:44N 48°32' W 123°01'1 2.8
2017-Oct-02 20:30N 48°33' W 123°00'10 6.9
2017-Oct-02 19:04N 48°39' W 123°12'  
2017-Sep-29 00:13N 49°10' W 123°56'1 3.3
2017-Sep-29 00:00N 49°10' W 123°55'3 6.3
2017-Sep-28 23:30N 49°13' W 123°56'3 6.8
2017-Sep-28 23:00N 49°15' W 124°00'3 6.8
2017-Sep-28 22:31N 49°17' W 124°04'4 7.0
2017-Sep-28 22:00N 49°19' W 124°09'3 7.0
2017-Sep-28 21:30N 49°21' W 124°13'4 7.2
2017-Sep-28 20:59N 49°24' W 124°17'3 7.1
2017-Sep-28 20:30N 49°27' W 124°20'3 6.9
2017-Sep-28 20:01N 49°29' W 124°24'4 7.0
2017-Sep-28 19:30N 49°32' W 124°28'4 7.1
2017-Sep-28 19:00N 49°35' W 124°31'3 7.0
2017-Sep-28 18:30N 49°38' W 124°33'3 6.8
2017-Sep-28 17:59N 49°41' W 124°36'3 6.9
2017-Sep-28 17:30N 49°44' W 124°39'3 6.5
2017-Sep-28 16:59N 49°47' W 124°40'3 6.7
2017-Sep-28 16:30N 49°50' W 124°41'3 6.7
2017-Sep-28 16:00N 49°53' W 124°42'3 6.3
2017-Sep-28 15:30N 49°56' W 124°44'3 5.9
2017-Sep-28 15:00N 49°59' W 124°46'0 0.0
2017-Sep-27 22:33N 49°59' W 124°46'0 0.0
2017-Sep-27 22:30N 49°59' W 124°46'2 4.4
2017-Sep-27 22:00N 49°59' W 124°49'4 6.9
2017-Sep-27 21:30N 50°00' W 124°54'4 6.8
2017-Sep-27 20:56N 49°60' W 125°00'3 6.9
2017-Sep-27 20:30N 49°59' W 125°05'3 6.1
2017-Sep-27 19:59N 49°59' W 125°10'3 5.2
2017-Sep-27 19:30N 50°00' W 125°13'3 6.2
2017-Sep-27 19:00N 50°03' W 125°15'3 6.8
2017-Sep-27 18:30N 50°06' W 125°18'3 6.7
2017-Sep-27 18:00N 50°09' W 125°21'4 7.1
2017-Sep-27 17:26N 50°13' W 125°22'  
2017-Sep-24 18:47N 50°44' W 127°21'2 6.5
2017-Sep-24 18:26N 50°45' W 127°24'  

Dump ship's entire track history